Time;durP1;ratioP1;P1;durP2;ratioP2;P2;SDS_P1;SDS_P2;PMS_P1;PMS_P2;Temp;Humidity;BMP_temperature;BMP_pressure;BME280_temperature;BME280_humidity;BME280_pressure;Samples;Min_cycle;Max_cycle;Signal;HPM_P1;HPM_P2
2022/12/29 00:02:24;;;;;;;7.93;5.10;;;;;;;;;;5117623;28;20216;-66
2022/12/29 00:04:53;;;;;;;6.43;4.73;;;;;;;;;;5119464;28;20215;-65
2022/12/29 00:07:21;;;;;;;9.23;5.27;;;;;;;;;;5121303;28;20866;-66
2022/12/29 00:09:49;;;;;;;8.23;5.00;;;;;;;;;;5121222;28;20209;-65
2022/12/29 00:12:18;;;;;;;10.30;5.13;;;;;;;;;;5121517;28;20208;-65
2022/12/29 00:17:32;;;;;;;12.17;4.63;;;;;;;;;;5120784;28;20715;-66
2022/12/29 00:36:40;;;;;;;7.03;5.10;;;;;;;;;;5120887;28;20292;-65
2022/12/29 00:44:40;;;;;;;10.37;5.10;;;;;;;;;;5108465;28;20225;-65
2022/12/29 00:47:08;;;;;;;7.00;5.30;;;;;;;;;;5120273;28;20200;-65
2022/12/29 00:49:35;;;;;;;8.90;5.00;;;;;;;;;;5120638;28;20204;-65
2022/12/29 00:52:06;;;;;;;8.13;5.53;;;;;;;;;;5120766;28;20201;-65
2022/12/29 00:54:35;;;;;;;6.83;5.50;;;;;;;;;;5120667;28;20252;-65
2022/12/29 00:57:04;;;;;;;5.60;4.97;;;;;;;;;;5120334;28;20237;-65
2022/12/29 00:59:32;;;;;;;7.83;4.80;;;;;;;;;;5119048;28;20208;-66
2022/12/29 01:02:00;;;;;;;9.30;5.43;;;;;;;;;;5117776;28;20205;-66
2022/12/29 01:04:29;;;;;;;9.37;5.70;;;;;;;;;;5120218;27;20236;-65
2022/12/29 01:06:57;;;;;;;7.87;5.73;;;;;;;;;;5120365;28;20205;-65
2022/12/29 01:12:12;;;;;;;10.80;6.13;;;;;;;;;;5120025;28;20291;-65
2022/12/29 01:14:40;;;;;;;10.30;5.77;;;;;;;;;;5119946;28;20249;-65
2022/12/29 01:17:08;;;;;;;10.67;5.70;;;;;;;;;;5119967;27;20205;-66
2022/12/29 01:19:36;;;;;;;9.23;5.87;;;;;;;;;;5119897;28;20205;-65
2022/12/29 01:22:04;;;;;;;7.50;5.63;;;;;;;;;;5120081;28;20292;-65
2022/12/29 01:24:35;;;;;;;8.37;5.53;;;;;;;;;;5119621;28;20297;-65
2022/12/29 01:27:03;;;;;;;8.50;5.73;;;;;;;;;;5120028;28;20208;-65
2022/12/29 01:29:31;;;;;;;7.67;5.67;;;;;;;;;;5119873;28;20204;-65
2022/12/29 01:31:59;;;;;;;9.63;6.03;;;;;;;;;;5119681;28;20209;-65
2022/12/29 01:34:27;;;;;;;8.37;5.83;;;;;;;;;;5119425;28;20251;-65
2022/12/29 01:36:55;;;;;;;8.23;6.10;;;;;;;;;;5119840;28;20205;-66
2022/12/29 01:39:23;;;;;;;8.27;6.03;;;;;;;;;;5119502;28;20200;-65
2022/12/29 01:41:52;;;;;;;8.17;6.20;;;;;;;;;;5119661;28;20201;-65
2022/12/29 01:44:39;;;;;;;9.93;6.43;;;;;;;;;;5119439;28;20228;-65
2022/12/29 01:47:08;;;;;;;8.80;6.17;;;;;;;;;;5119292;28;20240;-66
2022/12/29 01:49:36;;;;;;;9.97;6.23;;;;;;;;;;5119594;28;20236;-65
2022/12/29 01:52:06;;;;;;;8.50;6.00;;;;;;;;;;5119327;28;20209;-66
2022/12/29 01:54:37;;;;;;;9.37;6.10;;;;;;;;;;5119127;28;20225;-66
2022/12/29 01:57:09;;;;;;;10.23;5.87;;;;;;;;;;5118998;28;20285;-65
2022/12/29 01:59:39;;;;;;;8.80;6.60;;;;;;;;;;5117225;28;20572;-65
2022/12/29 02:02:08;;;;;;;9.03;6.23;;;;;;;;;;5117815;28;20208;-65
2022/12/29 02:04:38;;;;;;;11.67;6.07;;;;;;;;;;5119037;28;20300;-65
2022/12/29 02:07:09;;;;;;;9.67;6.57;;;;;;;;;;5119297;28;20201;-66
2022/12/29 02:09:38;;;;;;;7.50;6.00;;;;;;;;;;5118885;28;20668;-65
2022/12/29 02:12:08;;;;;;;9.97;6.37;;;;;;;;;;5119258;28;20223;-65
2022/12/29 02:14:36;;;;;;;12.00;7.47;;;;;;;;;;5119030;28;20224;-65
2022/12/29 02:17:11;;;;;;;8.37;6.73;;;;;;;;;;5118793;28;20244;-65
2022/12/29 02:19:53;;;;;;;12.07;6.90;;;;;;;;;;5118491;28;20239;-66
2022/12/29 02:22:28;;;;;;;8.47;6.53;;;;;;;;;;5118929;28;20287;-65
2022/12/29 02:25:14;;;;;;;10.47;6.50;;;;;;;;;;5118860;28;20282;-65
2022/12/29 02:28:05;;;;;;;7.77;6.93;;;;;;;;;;5077504;28;20212;-64
2022/12/29 02:30:41;;;;;;;9.90;6.97;;;;;;;;;;5098525;28;20212;-66
2022/12/29 02:33:13;;;;;;;12.13;6.97;;;;;;;;;;5118766;28;20220;-66
2022/12/29 02:35:45;;;;;;;9.30;6.67;;;;;;;;;;5118664;28;20201;-65
2022/12/29 02:38:19;;;;;;;8.10;6.50;;;;;;;;;;5118471;28;20209;-65
2022/12/29 02:40:49;;;;;;;13.97;7.07;;;;;;;;;;5118215;28;20637;-65
2022/12/29 02:43:24;;;;;;;11.83;7.43;;;;;;;;;;5118518;28;20256;-66
2022/12/29 02:45:55;;;;;;;11.47;7.10;;;;;;;;;;5118326;28;20226;-66
2022/12/29 02:48:25;;;;;;;6.93;5.83;;;;;;;;;;5118378;28;20205;-66
2022/12/29 02:50:58;;;;;;;9.13;6.70;;;;;;;;;;5118090;28;20236;-66
2022/12/29 02:56:09;;;;;;;8.17;6.13;;;;;;;;;;5117838;28;20242;-66
2022/12/29 02:58:37;;;;;;;8.87;6.13;;;;;;;;;;5118139;28;20667;-64
2022/12/29 03:01:12;;;;;;;7.33;5.97;;;;;;;;;;5114383;28;20258;-65
2022/12/29 03:03:48;;;;;;;7.43;5.73;;;;;;;;;;5118138;28;20271;-67
2022/12/29 03:06:28;;;;;;;10.53;6.07;;;;;;;;;;5118039;28;20263;-66
2022/12/29 03:09:00;;;;;;;9.33;5.37;;;;;;;;;;5118461;28;20200;-66
2022/12/29 03:17:19;;;;;;;6.53;5.40;;;;;;;;;;5117812;28;20236;-66
2022/12/29 03:19:49;;;;;;;10.57;5.90;;;;;;;;;;5117773;28;20208;-66
2022/12/29 03:22:30;;;;;;;7.50;5.50;;;;;;;;;;5117948;28;20258;-66
2022/12/29 03:25:00;;;;;;;10.63;5.47;;;;;;;;;;5118126;28;20228;-66
2022/12/29 03:27:29;;;;;;;11.07;6.13;;;;;;;;;;5118088;28;20204;-66
2022/12/29 03:29:59;;;;;;;11.40;5.13;;;;;;;;;;5118246;28;20205;-66
2022/12/29 03:32:32;;;;;;;9.70;5.23;;;;;;;;;;5117806;28;20258;-66
2022/12/29 03:35:00;;;;;;;8.90;4.97;;;;;;;;;;5118033;28;20235;-66
2022/12/29 03:37:31;;;;;;;9.50;5.33;;;;;;;;;;5118112;28;20209;-66
2022/12/29 03:39:59;;;;;;;8.97;5.03;;;;;;;;;;5120262;28;20204;-67
2022/12/29 03:42:29;;;;;;;8.13;5.13;;;;;;;;;;5121909;28;20659;-66
2022/12/29 03:44:57;;;;;;;8.03;4.77;;;;;;;;;;5121951;28;20257;-67
2022/12/29 03:47:25;;;;;;;8.23;4.73;;;;;;;;;;5121720;28;20211;-66
2022/12/29 03:49:55;;;;;;;5.30;4.80;;;;;;;;;;5121756;28;20209;-66
2022/12/29 03:52:23;;;;;;;10.77;4.97;;;;;;;;;;5121531;28;20783;-66
2022/12/29 03:54:51;;;;;;;8.33;5.20;;;;;;;;;;5121841;28;20208;-66
2022/12/29 03:57:19;;;;;;;5.87;4.87;;;;;;;;;;5121358;27;20700;-66
2022/12/29 03:59:47;;;;;;;5.50;4.40;;;;;;;;;;5118382;28;20213;-65
2022/12/29 04:02:15;;;;;;;8.03;5.30;;;;;;;;;;5120705;28;20250;-66
2022/12/29 04:04:45;;;;;;;6.73;4.53;;;;;;;;;;5121106;28;20245;-66
2022/12/29 04:07:14;;;;;;;7.17;4.53;;;;;;;;;;5121295;28;20209;-66
2022/12/29 04:09:42;;;;;;;6.30;3.73;;;;;;;;;;5121299;28;20284;-66
2022/12/29 04:12:10;;;;;;;6.37;4.70;;;;;;;;;;5121174;28;20258;-65
2022/12/29 04:14:38;;;;;;;6.27;4.37;;;;;;;;;;5121025;28;20671;-65
2022/12/29 04:17:06;;;;;;;6.07;4.13;;;;;;;;;;5120915;28;20646;-65
2022/12/29 04:19:34;;;;;;;8.20;5.03;;;;;;;;;;5121161;28;20239;-66
2022/12/29 04:22:02;;;;;;;10.23;5.50;;;;;;;;;;5121046;28;20238;-66
2022/12/29 04:24:32;;;;;;;6.73;4.70;;;;;;;;;;5120882;28;20224;-66
2022/12/29 04:27:00;;;;;;;6.37;4.13;;;;;;;;;;5121121;28;20228;-66
2022/12/29 04:29:28;;;;;;;10.73;4.67;;;;;;;;;;5121152;27;20205;-65
2022/12/29 04:31:56;;;;;;;8.27;3.57;;;;;;;;;;5120523;28;20240;-66
2022/12/29 04:34:24;;;;;;;7.73;3.83;;;;;;;;;;5120861;28;20229;-66
2022/12/29 04:36:52;;;;;;;6.67;3.80;;;;;;;;;;5121007;28;20244;-66
2022/12/29 04:39:20;;;;;;;6.80;4.40;;;;;;;;;;5120822;28;20201;-67
2022/12/29 04:41:49;;;;;;;5.67;4.70;;;;;;;;;;5120885;28;20258;-66
2022/12/29 04:44:17;;;;;;;7.17;3.43;;;;;;;;;;5120643;28;20598;-67
2022/12/29 04:46:45;;;;;;;4.53;3.63;;;;;;;;;;5120188;28;20354;-67
2022/12/29 04:49:13;;;;;;;4.13;3.63;;;;;;;;;;5120632;28;20204;-65
2022/12/29 04:51:41;;;;;;;5.93;3.73;;;;;;;;;;5120136;28;20568;-66
2022/12/29 04:54:09;;;;;;;7.77;3.57;;;;;;;;;;5120264;28;20683;-66
2022/12/29 04:56:37;;;;;;;6.90;3.40;;;;;;;;;;5120216;28;20592;-66
2022/12/29 04:59:06;;;;;;;5.67;3.70;;;;;;;;;;5120607;28;20205;-67
2022/12/29 05:01:34;;;;;;;6.87;3.90;;;;;;;;;;5116538;28;20205;-67
2022/12/29 05:04:03;;;;;;;7.03;3.57;;;;;;;;;;5120390;28;20267;-67
2022/12/29 05:06:31;;;;;;;5.57;3.87;;;;;;;;;;5120355;28;20229;-66
2022/12/29 05:08:59;;;;;;;6.77;3.57;;;;;;;;;;5120420;27;20205;-66
2022/12/29 05:11:27;;;;;;;6.10;3.50;;;;;;;;;;5120242;28;20251;-66
2022/12/29 05:13:55;;;;;;;4.93;3.30;;;;;;;;;;5119991;28;20256;-66
2022/12/29 05:16:24;;;;;;;10.20;3.70;;;;;;;;;;5119939;28;20204;-66
2022/12/29 05:18:52;;;;;;;3.20;2.83;;;;;;;;;;5120311;28;20247;-66
2022/12/29 05:21:20;;;;;;;8.63;3.27;;;;;;;;;;5119839;28;20241;-66
2022/12/29 05:23:48;;;;;;;3.60;3.30;;;;;;;;;;5119848;28;20586;-66
2022/12/29 05:26:16;;;;;;;4.30;3.07;;;;;;;;;;5119958;28;20278;-66
2022/12/29 05:28:45;;;;;;;7.17;3.37;;;;;;;;;;5119819;28;20743;-66
2022/12/29 05:31:13;;;;;;;7.13;2.90;;;;;;;;;;5119799;28;20211;-66
2022/12/29 05:33:42;;;;;;;3.80;3.30;;;;;;;;;;5119723;28;20229;-66
2022/12/29 05:36:11;;;;;;;6.97;3.03;;;;;;;;;;5119766;28;20207;-66
2022/12/29 05:38:39;;;;;;;4.50;2.93;;;;;;;;;;5119667;28;20209;-66
2022/12/29 05:41:07;;;;;;;5.17;3.23;;;;;;;;;;5119795;28;20282;-66
2022/12/29 05:43:35;;;;;;;4.77;3.10;;;;;;;;;;5119417;28;20220;-66
2022/12/29 05:46:03;;;;;;;3.93;2.90;;;;;;;;;;5119015;28;20316;-66
2022/12/29 05:48:31;;;;;;;5.57;3.27;;;;;;;;;;5119438;28;20255;-66
2022/12/29 05:51:06;;;;;;;8.43;3.13;;;;;;;;;;5119202;28;20215;-66
2022/12/29 05:53:34;;;;;;;5.53;3.27;;;;;;;;;;5119397;28;20224;-66
2022/12/29 05:56:02;;;;;;;6.37;3.07;;;;;;;;;;5119292;28;20260;-66
2022/12/29 05:58:31;;;;;;;5.30;2.70;;;;;;;;;;5119085;28;20208;-66
2022/12/29 06:00:59;;;;;;;6.80;3.53;;;;;;;;;;5114582;28;20262;-66
2022/12/29 06:03:27;;;;;;;4.03;3.03;;;;;;;;;;5118433;28;21351;-66
2022/12/29 06:05:56;;;;;;;5.00;2.90;;;;;;;;;;5119170;28;20224;-67
2022/12/29 06:08:25;;;;;;;3.73;3.23;;;;;;;;;;5119213;28;20230;-67
2022/12/29 06:10:53;;;;;;;5.17;3.10;;;;;;;;;;5118984;28;20724;-67
2022/12/29 06:13:21;;;;;;;3.97;2.57;;;;;;;;;;5119100;28;20224;-67
2022/12/29 06:15:49;;;;;;;5.07;2.90;;;;;;;;;;5118823;28;20209;-67
2022/12/29 06:18:17;;;;;;;4.83;2.67;;;;;;;;;;5118799;28;20205;-66
2022/12/29 06:20:47;;;;;;;4.27;2.80;;;;;;;;;;5118498;28;20208;-67
2022/12/29 06:23:16;;;;;;;7.50;3.27;;;;;;;;;;5118560;28;20316;-67
2022/12/29 06:25:45;;;;;;;5.40;3.33;;;;;;;;;;5115689;28;20197;-67
2022/12/29 06:28:13;;;;;;;3.43;3.00;;;;;;;;;;5118621;28;20232;-67
2022/12/29 06:30:44;;;;;;;4.53;3.10;;;;;;;;;;5118446;28;20193;-67
2022/12/29 06:33:12;;;;;;;3.87;2.73;;;;;;;;;;5118265;28;20217;-67
2022/12/29 06:35:41;;;;;;;6.30;3.07;;;;;;;;;;5118327;28;20219;-67
2022/12/29 06:38:09;;;;;;;4.70;2.70;;;;;;;;;;5118288;28;20718;-67
2022/12/29 06:40:37;;;;;;;5.03;2.90;;;;;;;;;;5118500;28;20258;-67
2022/12/29 06:43:07;;;;;;;3.30;2.73;;;;;;;;;;5118115;28;20266;-67
2022/12/29 06:45:35;;;;;;;3.93;3.00;;;;;;;;;;5114080;28;20197;-66
2022/12/29 06:48:03;;;;;;;3.83;2.63;;;;;;;;;;5118317;28;20304;-67
2022/12/29 06:50:31;;;;;;;11.83;3.30;;;;;;;;;;5117925;28;20246;-65
2022/12/29 06:52:59;;;;;;;7.97;3.70;;;;;;;;;;5118161;28;20229;-66
2022/12/29 06:55:28;;;;;;;4.40;2.60;;;;;;;;;;5118463;28;20201;-66
2022/12/29 06:57:56;;;;;;;4.63;2.47;;;;;;;;;;5118060;28;20235;-67
2022/12/29 07:00:25;;;;;;;6.10;2.97;;;;;;;;;;5113464;28;20719;-67
2022/12/29 07:02:55;;;;;;;4.60;3.57;;;;;;;;;;5118427;28;20224;-67
2022/12/29 07:05:24;;;;;;;2.97;2.60;;;;;;;;;;5118272;28;20201;-67
2022/12/29 07:07:52;;;;;;;3.47;2.23;;;;;;;;;;5118338;28;20239;-67
2022/12/29 07:10:20;;;;;;;2.70;2.50;;;;;;;;;;5118022;28;20235;-67
2022/12/29 07:12:50;;;;;;;9.27;2.80;;;;;;;;;;5118872;28;20228;-67
2022/12/29 07:15:18;;;;;;;3.13;2.57;;;;;;;;;;5122119;28;20577;-67
2022/12/29 07:17:49;;;;;;;6.20;3.40;;;;;;;;;;5122189;28;20197;-67
2022/12/29 07:20:17;;;;;;;6.20;2.97;;;;;;;;;;5122372;28;20209;-67
2022/12/29 07:22:53;;;;;;;10.47;3.10;;;;;;;;;;5122162;27;20260;-67
2022/12/29 07:25:21;;;;;;;5.73;3.03;;;;;;;;;;5122335;28;20204;-67
2022/12/29 07:27:49;;;;;;;4.83;2.90;;;;;;;;;;5122207;28;20221;-67
2022/12/29 07:30:17;;;;;;;4.97;2.90;;;;;;;;;;5121959;27;20211;-66
2022/12/29 07:32:45;;;;;;;5.90;3.00;;;;;;;;;;5122109;28;20224;-65
2022/12/29 07:35:15;;;;;;;4.57;2.70;;;;;;;;;;5122139;28;20205;-65
2022/12/29 07:37:44;;;;;;;7.77;3.17;;;;;;;;;;5122183;28;20228;-66
2022/12/29 07:40:12;;;;;;;5.93;2.90;;;;;;;;;;5122076;28;20201;-66
2022/12/29 07:42:40;;;;;;;6.57;3.00;;;;;;;;;;5121478;28;20646;-66
2022/12/29 07:45:09;;;;;;;4.87;3.07;;;;;;;;;;5121721;28;20272;-67
2022/12/29 07:47:37;;;;;;;5.77;2.63;;;;;;;;;;5121796;28;20256;-64
2022/12/29 07:50:06;;;;;;;5.70;3.00;;;;;;;;;;5121801;28;20205;-66
2022/12/29 07:52:35;;;;;;;6.40;2.97;;;;;;;;;;5121501;28;20224;-65
2022/12/29 07:55:04;;;;;;;3.93;2.90;;;;;;;;;;5121407;28;20209;-66
2022/12/29 07:57:32;;;;;;;6.90;3.00;;;;;;;;;;5121661;28;20271;-67
2022/12/29 07:59:59;;;;;;;3.13;2.77;;;;;;;;;;5117605;28;20209;-67
2022/12/29 08:02:28;;;;;;;10.10;2.90;;;;;;;;;;5121043;28;20617;-65
2022/12/29 08:04:56;;;;;;;4.87;2.67;;;;;;;;;;5121452;28;20205;-67
2022/12/29 08:07:24;;;;;;;4.30;2.60;;;;;;;;;;5121478;28;20225;-65
2022/12/29 08:09:54;;;;;;;3.97;2.80;;;;;;;;;;5121183;28;20646;-65
2022/12/29 08:12:22;;;;;;;9.20;3.03;;;;;;;;;;5121512;28;20251;-65
2022/12/29 08:14:50;;;;;;;9.87;2.83;;;;;;;;;;5121414;28;20205;-66
2022/12/29 08:17:18;;;;;;;5.33;3.10;;;;;;;;;;5120926;28;20686;-67
2022/12/29 08:19:46;;;;;;;4.70;2.90;;;;;;;;;;5120885;28;20635;-66
2022/12/29 08:22:14;;;;;;;5.33;2.50;;;;;;;;;;5121215;28;20262;-66
2022/12/29 08:24:42;;;;;;;5.10;2.53;;;;;;;;;;5120245;28;20664;-65
2022/12/29 08:27:12;;;;;;;5.97;3.10;;;;;;;;;;5121590;28;20269;-66
2022/12/29 08:29:47;;;;;;;3.77;2.87;;;;;;;;;;5121147;28;20204;-66
2022/12/29 08:32:15;;;;;;;5.93;2.40;;;;;;;;;;5120452;28;20640;-66
2022/12/29 08:34:43;;;;;;;4.73;2.80;;;;;;;;;;5120998;28;20209;-66
2022/12/29 08:37:11;;;;;;;6.13;2.50;;;;;;;;;;5120705;28;20205;-65
2022/12/29 08:39:39;;;;;;;4.10;2.60;;;;;;;;;;5120893;28;20242;-67
2022/12/29 08:42:07;;;;;;;7.83;2.77;;;;;;;;;;5120837;28;20197;-66
2022/12/29 08:44:37;;;;;;;4.80;2.40;;;;;;;;;;5120523;28;20235;-67
2022/12/29 08:47:05;;;;;;;6.47;2.97;;;;;;;;;;5120381;28;20258;-66
2022/12/29 08:49:34;;;;;;;5.23;2.50;;;;;;;;;;5120663;28;20297;-66
2022/12/29 08:52:02;;;;;;;3.67;2.63;;;;;;;;;;5120578;28;20235;-66
2022/12/29 08:54:30;;;;;;;3.33;2.87;;;;;;;;;;5120250;28;20225;-65
2022/12/29 08:56:58;;;;;;;8.53;2.50;;;;;;;;;;5120040;28;20268;-67
2022/12/29 08:59:26;;;;;;;4.10;2.70;;;;;;;;;;5120012;28;20202;-67
2022/12/29 09:01:55;;;;;;;2.77;2.33;;;;;;;;;;5116644;28;20209;-67
2022/12/29 09:04:24;;;;;;;3.87;2.50;;;;;;;;;;5120030;28;20569;-66
2022/12/29 09:06:52;;;;;;;5.73;2.73;;;;;;;;;;5120394;28;20269;-66
2022/12/29 09:09:21;;;;;;;6.33;2.90;;;;;;;;;;5120146;28;20263;-66
2022/12/29 09:11:49;;;;;;;4.67;3.10;;;;;;;;;;5119961;28;20566;-66
2022/12/29 09:14:16;;;;;;;2.67;2.30;;;;;;;;;;5120283;28;20231;-66
2022/12/29 09:19:31;;;;;;;3.67;2.37;;;;;;;;;;5119990;28;20205;-66
2022/12/29 09:21:59;;;;;;;7.93;3.00;;;;;;;;;;5120033;28;20208;-66
2022/12/29 09:24:27;;;;;;;3.47;2.57;;;;;;;;;;5120073;28;20229;-66
2022/12/29 09:26:55;;;;;;;6.67;3.10;;;;;;;;;;5119918;28;20216;-66
2022/12/29 09:29:23;;;;;;;5.20;2.80;;;;;;;;;;5119598;28;20233;-66
2022/12/29 09:31:52;;;;;;;5.50;2.50;;;;;;;;;;5119249;28;20264;-65
2022/12/29 09:34:21;;;;;;;7.07;3.30;;;;;;;;;;5119712;28;20232;-66
2022/12/29 09:36:50;;;;;;;4.70;2.40;;;;;;;;;;5118449;28;20667;-66
2022/12/29 09:39:18;;;;;;;6.57;2.73;;;;;;;;;;5119412;28;20285;-64
2022/12/29 09:41:49;;;;;;;4.80;2.50;;;;;;;;;;5119805;28;20204;-65
2022/12/29 09:44:21;;;;;;;5.60;2.37;;;;;;;;;;5119355;28;20631;-66
2022/12/29 09:46:51;;;;;;;4.23;2.63;;;;;;;;;;5119519;28;20236;-65
2022/12/29 09:49:25;;;;;;;2.77;2.30;;;;;;;;;;5119586;28;20228;-65
2022/12/29 09:51:55;;;;;;;6.10;2.60;;;;;;;;;;5119199;28;20573;-65
2022/12/29 09:54:39;;;;;;;3.37;2.20;;;;;;;;;;5119464;28;20225;-65
2022/12/29 09:57:13;;;;;;;2.90;2.30;;;;;;;;;;5118859;28;20719;-66
2022/12/29 09:59:42;;;;;;;3.27;2.50;;;;;;;;;;5116332;28;20200;-65
2022/12/29 10:02:15;;;;;;;3.90;3.00;;;;;;;;;;5117932;28;20279;-66
2022/12/29 10:04:44;;;;;;;5.97;2.90;;;;;;;;;;5118707;28;20232;-66
2022/12/29 10:07:18;;;;;;;4.67;2.67;;;;;;;;;;5119029;28;20575;-65
2022/12/29 10:10:02;;;;;;;6.40;2.53;;;;;;;;;;5119188;28;20228;-66
2022/12/29 10:12:38;;;;;;;3.40;3.10;;;;;;;;;;5118690;28;20659;-66
2022/12/29 10:15:12;;;;;;;3.73;2.47;;;;;;;;;;5118718;28;20240;-65
2022/12/29 10:17:45;;;;;;;2.87;2.40;;;;;;;;;;5119158;28;20204;-65
2022/12/29 10:20:20;;;;;;;3.33;2.27;;;;;;;;;;5118933;28;20239;-65
2022/12/29 10:22:57;;;;;;;5.87;2.90;;;;;;;;;;5118634;28;20227;-65
2022/12/29 10:25:26;;;;;;;4.27;2.30;;;;;;;;;;5118741;28;20204;-66
2022/12/29 10:28:02;;;;;;;4.30;2.67;;;;;;;;;;5118413;28;20254;-65
2022/12/29 10:30:30;;;;;;;10.37;3.00;;;;;;;;;;5118432;28;20240;-65
2022/12/29 10:32:59;;;;;;;3.13;2.67;;;;;;;;;;5118530;28;20220;-65
2022/12/29 10:35:30;;;;;;;5.90;3.00;;;;;;;;;;5118688;28;20236;-66
2022/12/29 10:38:03;;;;;;;3.80;2.60;;;;;;;;;;5118863;28;20329;-65
2022/12/29 10:40:34;;;;;;;13.37;2.80;;;;;;;;;;5118731;28;20218;-65
2022/12/29 10:43:06;;;;;;;4.20;2.70;;;;;;;;;;5118927;28;20228;-66
2022/12/29 10:45:34;;;;;;;6.73;2.67;;;;;;;;;;5118324;28;20288;-65
2022/12/29 10:48:04;;;;;;;6.33;2.50;;;;;;;;;;5118320;28;20254;-65
2022/12/29 10:50:32;;;;;;;4.40;2.30;;;;;;;;;;5118348;28;20257;-65
2022/12/29 10:53:03;;;;;;;7.20;2.50;;;;;;;;;;5118293;28;20228;-65
2022/12/29 10:55:33;;;;;;;4.00;2.20;;;;;;;;;;5118188;28;20205;-64
2022/12/29 10:58:04;;;;;;;6.30;3.00;;;;;;;;;;5118058;28;20247;-64
2022/12/29 11:00:34;;;;;;;7.03;3.00;;;;;;;;;;5114476;28;20201;-65
2022/12/29 11:03:13;;;;;;;5.13;3.20;;;;;;;;;;5118480;28;20228;-65
2022/12/29 11:05:43;;;;;;;3.47;2.50;;;;;;;;;;5118442;28;20204;-65
2022/12/29 11:08:13;;;;;;;3.83;2.40;;;;;;;;;;5118693;28;20215;-65
2022/12/29 11:10:42;;;;;;;5.97;3.10;;;;;;;;;;5118404;28;20243;-64
2022/12/29 11:13:16;;;;;;;6.17;2.60;;;;;;;;;;5118028;28;20220;-65
2022/12/29 11:15:44;;;;;;;3.37;2.80;;;;;;;;;;5118277;28;20201;-64
2022/12/29 11:18:23;;;;;;;4.87;2.53;;;;;;;;;;5117970;28;20287;-64
2022/12/29 11:20:52;;;;;;;4.83;2.77;;;;;;;;;;5118022;28;20212;-65
2022/12/29 11:23:26;;;;;;;6.03;2.60;;;;;;;;;;5118110;28;20290;-65
2022/12/29 11:26:07;;;;;;;6.77;2.90;;;;;;;;;;5118539;28;20209;-65
2022/12/29 11:28:35;;;;;;;5.20;3.57;;;;;;;;;;5117991;28;20211;-65
2022/12/29 11:31:04;;;;;;;6.30;3.07;;;;;;;;;;5117434;28;20540;-65
2022/12/29 11:33:33;;;;;;;6.60;3.27;;;;;;;;;;5115157;28;20228;-65
2022/12/29 11:36:03;;;;;;;5.37;2.60;;;;;;;;;;5117544;28;20544;-65
2022/12/29 11:38:34;;;;;;;4.77;2.80;;;;;;;;;;5117954;28;20209;-65
2022/12/29 11:41:03;;;;;;;6.33;2.60;;;;;;;;;;5118010;28;20207;-65
2022/12/29 11:43:33;;;;;;;5.23;2.73;;;;;;;;;;5117968;28;20252;-65
2022/12/29 11:46:03;;;;;;;4.30;3.10;;;;;;;;;;5117482;28;20269;-66
2022/12/29 11:48:34;;;;;;;7.70;2.77;;;;;;;;;;5117873;28;20242;-65
2022/12/29 11:51:02;;;;;;;7.10;2.33;;;;;;;;;;5117988;28;20205;-65
2022/12/29 11:53:38;;;;;;;5.87;3.13;;;;;;;;;;5117655;28;20225;-65
2022/12/29 11:56:09;;;;;;;5.63;3.27;;;;;;;;;;5117593;28;20228;-64
2022/12/29 11:58:37;;;;;;;3.03;2.30;;;;;;;;;;5117838;28;20211;-63
2022/12/29 12:01:07;;;;;;;7.37;3.10;;;;;;;;;;5116365;28;20205;-65
2022/12/29 12:03:37;;;;;;;7.10;2.87;;;;;;;;;;5119832;28;20256;-65
2022/12/29 12:06:07;;;;;;;5.67;3.00;;;;;;;;;;5119531;28;20207;-64
2022/12/29 12:08:38;;;;;;;7.00;2.43;;;;;;;;;;5119470;28;20239;-64
2022/12/29 12:11:10;;;;;;;30.60;15.73;;;;;;;;;;5119237;28;20282;-64
2022/12/29 12:13:40;;;;;;;5.77;3.03;;;;;;;;;;5119124;28;20221;-65
2022/12/29 12:16:10;;;;;;;6.17;2.97;;;;;;;;;;5119431;28;20209;-65
2022/12/29 12:18:41;;;;;;;2.80;2.37;;;;;;;;;;5120486;28;20211;-65
2022/12/29 12:21:13;;;;;;;4.03;2.77;;;;;;;;;;5120663;28;20231;-66
2022/12/29 12:23:59;;;;;;;9.03;3.17;;;;;;;;;;5121158;28;20309;-63
2022/12/29 12:26:31;;;;;;;6.50;2.90;;;;;;;;;;5121057;28;20256;-65
2022/12/29 12:29:00;;;;;;;5.90;2.37;;;;;;;;;;5120980;28;20205;-63
2022/12/29 12:31:34;;;;;;;3.67;2.60;;;;;;;;;;5120783;28;20287;-65
2022/12/29 12:34:06;;;;;;;5.77;2.57;;;;;;;;;;5120816;28;20229;-65
2022/12/29 12:36:46;;;;;;;6.33;2.70;;;;;;;;;;5120860;28;20205;-63
2022/12/29 12:39:20;;;;;;;3.90;2.37;;;;;;;;;;5120193;28;20717;-66
2022/12/29 12:41:56;;;;;;;6.43;2.80;;;;;;;;;;5120997;28;20207;-64
2022/12/29 12:44:29;;;;;;;6.17;2.60;;;;;;;;;;5120890;28;20220;-67
2022/12/29 12:47:06;;;;;;;7.43;4.93;;;;;;;;;;5120041;28;20201;-67
2022/12/29 12:49:46;;;;;;;4.53;2.23;;;;;;;;;;5120948;28;20224;-66
2022/12/29 12:52:20;;;;;;;5.10;2.63;;;;;;;;;;5119623;28;20207;-67
2022/12/29 12:55:01;;;;;;;5.27;2.60;;;;;;;;;;5117379;28;20229;-69
2022/12/29 12:57:35;;;;;;;4.33;2.43;;;;;;;;;;5117420;28;20236;-68
2022/12/29 13:00:06;;;;;;;4.83;2.57;;;;;;;;;;5116082;28;20200;-68
2022/12/29 13:02:38;;;;;;;7.37;2.80;;;;;;;;;;5119247;28;20239;-65
2022/12/29 13:05:15;;;;;;;5.50;2.80;;;;;;;;;;5120340;28;20232;-63
2022/12/29 13:07:51;;;;;;;2.33;2.13;;;;;;;;;;5120866;28;20644;-63
2022/12/29 13:10:24;;;;;;;2.83;2.47;;;;;;;;;;5120421;28;20251;-64
2022/12/29 13:12:55;;;;;;;4.40;2.30;;;;;;;;;;5120261;28;20691;-63
2022/12/29 13:15:30;;;;;;;4.80;3.50;;;;;;;;;;5120276;28;20209;-65
2022/12/29 13:18:00;;;;;;;8.80;2.53;;;;;;;;;;5120081;28;20204;-64
2022/12/29 13:20:32;;;;;;;5.20;2.33;;;;;;;;;;5119802;28;20250;-63
2022/12/29 13:23:03;;;;;;;7.23;2.57;;;;;;;;;;5119920;28;20229;-64
2022/12/29 13:25:37;;;;;;;4.37;2.40;;;;;;;;;;5119853;28;20204;-64
2022/12/29 13:28:08;;;;;;;3.37;2.43;;;;;;;;;;5119844;28;20208;-64
2022/12/29 13:30:40;;;;;;;7.30;2.97;;;;;;;;;;5119341;28;20225;-64
2022/12/29 13:33:14;;;;;;;7.33;2.70;;;;;;;;;;5120089;28;20224;-64
2022/12/29 13:35:53;;;;;;;5.47;2.77;;;;;;;;;;5119064;28;20232;-63
2022/12/29 13:38:23;;;;;;;5.53;2.70;;;;;;;;;;5118915;28;20246;-63
2022/12/29 13:40:55;;;;;;;3.33;2.57;;;;;;;;;;5117967;28;20197;-63
2022/12/29 13:43:24;;;;;;;7.30;2.87;;;;;;;;;;5118358;28;20273;-65
2022/12/29 13:45:58;;;;;;;5.70;2.43;;;;;;;;;;5118206;27;20197;-64
2022/12/29 13:48:30;;;;;;;5.80;2.30;;;;;;;;;;5118048;28;20196;-63
2022/12/29 13:51:01;;;;;;;5.13;2.70;;;;;;;;;;5116163;28;20220;-64
2022/12/29 13:53:34;;;;;;;4.97;2.20;;;;;;;;;;5117752;28;20227;-63
2022/12/29 13:56:07;;;;;;;7.03;2.80;;;;;;;;;;5118055;28;20229;-64
2022/12/29 13:58:37;;;;;;;7.07;2.67;;;;;;;;;;5115754;28;20219;-65
2022/12/29 14:01:11;;;;;;;3.47;2.30;;;;;;;;;;5116959;28;20656;-65
2022/12/29 14:03:47;;;;;;;6.10;3.43;;;;;;;;;;5115570;28;20648;-65
2022/12/29 14:06:19;;;;;;;3.83;2.77;;;;;;;;;;5116195;28;20564;-65
2022/12/29 14:08:48;;;;;;;7.53;3.20;;;;;;;;;;5118082;28;20200;-65
2022/12/29 14:11:19;;;;;;;5.77;2.60;;;;;;;;;;5117382;28;20372;-65
2022/12/29 14:13:48;;;;;;;8.67;2.97;;;;;;;;;;5117777;28;20224;-65
2022/12/29 14:16:30;;;;;;;7.80;2.80;;;;;;;;;;5117731;28;20232;-63
2022/12/29 14:19:05;;;;;;;5.90;2.60;;;;;;;;;;5116655;28;20232;-66
2022/12/29 14:21:34;;;;;;;7.83;3.30;;;;;;;;;;5116184;28;20193;-65
2022/12/29 14:24:18;;;;;;;6.63;2.70;;;;;;;;;;5116999;28;20217;-66
2022/12/29 14:26:47;;;;;;;4.20;2.60;;;;;;;;;;5116956;28;20698;-65
2022/12/29 14:29:33;;;;;;;6.93;2.93;;;;;;;;;;5117347;28;20607;-66
2022/12/29 14:32:02;;;;;;;4.83;2.83;;;;;;;;;;5117004;28;20307;-63
2022/12/29 14:34:31;;;;;;;6.43;2.60;;;;;;;;;;5118253;28;20224;-64
2022/12/29 14:37:00;;;;;;;5.07;2.50;;;;;;;;;;5118765;28;20201;-66
2022/12/29 14:39:31;;;;;;;6.50;2.77;;;;;;;;;;5118532;28;20725;-66
2022/12/29 14:42:05;;;;;;;4.20;2.33;;;;;;;;;;5118728;28;20224;-66
2022/12/29 14:44:33;;;;;;;3.30;2.60;;;;;;;;;;5105956;28;20267;-66
2022/12/29 14:47:06;;;;;;;3.30;2.70;;;;;;;;;;5117884;28;20250;-66
2022/12/29 14:49:40;;;;;;;3.37;2.53;;;;;;;;;;5118576;28;20211;-66
2022/12/29 14:52:13;;;;;;;3.50;2.60;;;;;;;;;;5118473;28;20232;-64
2022/12/29 14:54:43;;;;;;;22.70;11.83;;;;;;;;;;5118455;28;20236;-62
2022/12/29 14:57:19;;;;;;;14.67;9.37;;;;;;;;;;5118072;28;20316;-65
2022/12/29 14:59:48;;;;;;;7.97;3.30;;;;;;;;;;5114824;28;20201;-64
2022/12/29 15:02:18;;;;;;;6.83;3.40;;;;;;;;;;5117995;28;20219;-63
2022/12/29 15:04:47;;;;;;;6.23;3.07;;;;;;;;;;5117883;28;20208;-63
2022/12/29 15:07:18;;;;;;;4.80;3.17;;;;;;;;;;5118174;28;20204;-62
2022/12/29 15:09:49;;;;;;;5.10;3.00;;;;;;;;;;5118313;28;20215;-63
2022/12/29 15:12:23;;;;;;;11.47;3.37;;;;;;;;;;5118176;28;20260;-63
2022/12/29 15:14:52;;;;;;;5.37;2.70;;;;;;;;;;5117800;28;20678;-66
2022/12/29 15:17:25;;;;;;;5.97;2.83;;;;;;;;;;5118375;28;20205;-65
2022/12/29 15:19:54;;;;;;;4.80;2.73;;;;;;;;;;5117413;28;20220;-65
2022/12/29 15:22:22;;;;;;;7.70;2.60;;;;;;;;;;5124610;28;20255;-65
2022/12/29 15:24:51;;;;;;;7.93;2.93;;;;;;;;;;5112999;27;20198;-67
2022/12/29 15:27:22;;;;;;;6.23;2.80;;;;;;;;;;5112951;28;20544;-65
2022/12/29 15:29:56;;;;;;;7.60;3.33;;;;;;;;;;5113985;28;20231;-65
2022/12/29 15:32:26;;;;;;;6.47;2.77;;;;;;;;;;5117638;28;20722;-65
2022/12/29 15:34:55;;;;;;;7.70;3.10;;;;;;;;;;5120237;28;20363;-65
2022/12/29 15:37:24;;;;;;;4.87;3.17;;;;;;;;;;5122104;28;20211;-65
2022/12/29 15:39:52;;;;;;;6.27;3.47;;;;;;;;;;5121122;27;20204;-65